Time;durP1;ratioP1;P1;durP2;ratioP2;P2;SDS_P1;SDS_P2;PMS_P1;PMS_P2;Temp;Humidity;BMP_temperature;BMP_pressure;BME280_temperature;BME280_humidity;BME280_pressure;Samples;Min_cycle;Max_cycle;Signal;HPM_P1;HPM_P2
2023/06/09 00:00:55;;;;;;;9.93;6.30;;;;;;;11.01;100.00;96967.09;4958992;28;20054;-76
2023/06/09 00:03:22;;;;;;;8.63;5.95;;;;;;;10.68;100.00;96962.88;4962709;28;20654;-76
2023/06/09 00:05:49;;;;;;;9.27;6.18;;;;;;;10.47;100.00;96963.56;4962911;28;20512;-76
2023/06/09 00:08:16;;;;;;;9.93;6.93;;;;;;;10.39;100.00;96970.25;4959530;28;20313;-76
2023/06/09 00:10:42;;;;;;;9.18;5.78;;;;;;;10.50;100.00;96963.03;4956565;28;20038;-76
2023/06/09 00:13:09;;;;;;;9.63;6.97;;;;;;;10.62;100.00;96970.16;4963130;28;20049;-76
2023/06/09 00:15:37;;;;;;;7.60;6.10;;;;;;;10.69;100.00;96962.59;4958793;28;20722;-76
2023/06/09 00:18:04;;;;;;;9.85;6.00;;;;;;;10.73;100.00;96965.59;4961475;28;20106;-76
2023/06/09 00:20:34;;;;;;;10.77;6.15;;;;;;;10.72;100.00;96967.47;4964070;28;20506;-76
2023/06/09 00:23:01;;;;;;;10.52;6.05;;;;;;;10.63;100.00;96958.25;4960363;28;20051;-76
2023/06/09 00:25:28;;;;;;;9.88;6.18;;;;;;;10.45;100.00;96954.88;4963922;28;20110;-75
2023/06/09 00:27:55;;;;;;;9.23;6.78;;;;;;;10.38;100.00;96956.97;4960381;28;20058;-76
2023/06/09 00:30:22;;;;;;;11.23;7.13;;;;;;;10.43;100.00;96969.72;4961441;28;20098;-75
2023/06/09 00:33:05;;;;;;;8.52;6.15;;;;;;;10.46;100.00;96961.13;4961354;28;20097;-76
2023/06/09 00:35:32;;;;;;;8.80;6.07;;;;;;;10.63;100.00;96963.66;4961804;28;20121;-75
2023/06/09 00:37:59;;;;;;;9.13;5.60;;;;;;;10.73;100.00;96963.69;4960348;28;20050;-76
2023/06/09 00:40:26;;;;;;;11.13;6.63;;;;;;;10.78;100.00;96965.63;4954944;28;20062;-76
2023/06/09 00:42:53;;;;;;;9.77;6.05;;;;;;;10.75;100.00;96960.72;4946979;28;20419;-76
2023/06/09 00:45:20;;;;;;;11.85;6.22;;;;;;;10.56;100.00;96952.22;4961247;28;20201;-76
2023/06/09 00:47:47;;;;;;;10.23;6.13;;;;;;;10.46;100.00;96961.13;4964719;28;20039;-76
2023/06/09 00:50:16;;;;;;;7.47;5.75;;;;;;;10.42;100.00;96968.91;4965624;28;20042;-75
2023/06/09 00:52:45;;;;;;;9.63;6.75;;;;;;;10.46;100.00;96958.41;4957079;28;20039;-76
2023/06/09 00:55:12;;;;;;;8.55;6.30;;;;;;;10.50;100.00;96956.78;4955285;28;20137;-76
2023/06/09 00:57:44;;;;;;;10.45;6.45;;;;;;;10.30;100.00;96954.75;4954160;28;20410;-76
2023/06/09 01:00:15;;;;;;;8.90;6.30;;;;;;;10.32;100.00;96958.81;4965217;28;20422;-76
2023/06/09 01:02:43;;;;;;;9.70;6.60;;;;;;;10.36;100.00;96951.03;4960573;28;20077;-76
2023/06/09 01:05:12;;;;;;;8.32;6.03;;;;;;;10.18;100.00;96947.66;4963932;28;20038;-76
2023/06/09 01:07:54;;;;;;;10.45;6.93;;;;;;;10.07;100.00;96956.75;4948783;28;20051;-75
2023/06/09 01:10:30;;;;;;;9.48;6.93;;;;;;;10.17;100.00;96962.22;4946186;28;20513;-76
2023/06/09 01:13:06;;;;;;;11.02;7.47;;;;;;;10.22;100.00;96956.06;4962983;28;20251;-76
2023/06/09 01:15:36;;;;;;;9.07;6.68;;;;;;;10.22;100.00;96946.06;4966388;28;20101;-76
2023/06/09 01:18:08;;;;;;;9.37;6.47;;;;;;;9.81;100.00;96946.56;4961878;28;20066;-75
2023/06/09 01:20:45;;;;;;;7.90;5.63;;;;;;;9.87;100.00;96947.41;4954050;28;20305;-76
2023/06/09 01:23:32;;;;;;;9.20;6.35;;;;;;;10.14;100.00;96949.25;4959461;28;20101;-76
2023/06/09 01:25:59;;;;;;;9.52;6.55;;;;;;;10.27;100.00;96950.69;4961966;28;20043;-76
2023/06/09 01:28:28;;;;;;;9.13;6.47;;;;;;;10.31;100.00;96951.78;4952221;28;20042;-75
2023/06/09 01:30:56;;;;;;;8.60;6.03;;;;;;;10.24;100.00;96948.47;4960534;28;20042;-76
2023/06/09 01:33:24;;;;;;;10.63;6.43;;;;;;;10.25;100.00;96948.22;4940688;28;20125;-76
2023/06/09 01:35:53;;;;;;;10.15;6.40;;;;;;;10.22;100.00;96946.06;4960426;28;20045;-75
2023/06/09 01:38:21;;;;;;;10.18;6.72;;;;;;;10.22;100.00;96950.66;4959078;28;20058;-76
2023/06/09 01:40:48;;;;;;;12.00;6.60;;;;;;;10.05;100.00;96948.91;4959946;28;20046;-76
2023/06/09 01:43:15;;;;;;;9.68;6.40;;;;;;;10.07;100.00;96948.66;4961925;28;20035;-75
2023/06/09 01:45:41;;;;;;;9.68;6.30;;;;;;;10.09;100.00;96947.31;4964186;28;20492;-76
2023/06/09 01:48:39;;;;;;;10.13;6.57;;;;;;;10.22;100.00;96948.78;4955011;28;20049;-76
2023/06/09 01:51:13;;;;;;;8.33;6.03;;;;;;;10.46;100.00;96945.69;4958861;28;20475;-76
2023/06/09 01:53:47;;;;;;;9.85;6.50;;;;;;;10.37;100.00;96939.09;4952949;28;20062;-76
2023/06/09 01:56:23;;;;;;;9.27;5.90;;;;;;;10.24;100.00;96938.50;4960330;28;20062;-76
2023/06/09 01:58:55;;;;;;;9.85;5.95;;;;;;;10.08;100.00;96948.41;4955860;28;20070;-75
2023/06/09 02:01:24;;;;;;;10.13;6.63;;;;;;;9.99;100.00;96939.94;4956146;28;20049;-76
2023/06/09 02:03:54;;;;;;;9.65;6.35;;;;;;;9.90;100.00;96944.19;4951891;28;20039;-75
2023/06/09 02:06:21;;;;;;;9.70;6.68;;;;;;;9.79;100.00;96940.59;4956402;28;20303;-77
2023/06/09 02:08:48;;;;;;;10.57;6.65;;;;;;;9.83;100.00;96944.41;4955716;28;20505;-77
2023/06/09 02:11:15;;;;;;;11.43;6.65;;;;;;;9.91;100.00;96945.00;4961320;28;20047;-77
2023/06/09 02:13:42;;;;;;;9.23;6.30;;;;;;;9.92;100.00;96941.22;4968455;28;20047;-77
2023/06/09 02:16:08;;;;;;;8.80;6.32;;;;;;;9.97;100.00;96939.38;4955215;28;20047;-77
2023/06/09 02:18:36;;;;;;;7.47;5.60;;;;;;;10.06;100.00;96930.78;4960160;28;20038;-77
2023/06/09 02:21:03;;;;;;;10.02;6.38;;;;;;;9.94;100.00;96934.47;4951480;28;20039;-77
2023/06/09 02:23:30;;;;;;;8.80;5.90;;;;;;;9.80;100.00;96930.59;4956747;28;20039;-76
2023/06/09 02:25:56;;;;;;;9.30;6.25;;;;;;;9.76;100.00;96936.50;4956595;28;20051;-77
2023/06/09 02:28:23;;;;;;;10.43;7.82;;;;;;;9.72;100.00;96935.41;4939240;28;20047;-77
2023/06/09 02:30:49;;;;;;;10.20;6.65;;;;;;;9.67;100.00;96935.34;4963517;28;20043;-77
2023/06/09 02:33:18;;;;;;;11.02;7.00;;;;;;;9.59;100.00;96927.72;4972163;28;20485;-77
2023/06/09 02:35:45;;;;;;;9.93;6.65;;;;;;;9.70;100.00;96934.81;4959930;28;20577;-77
2023/06/09 02:38:11;;;;;;;10.40;7.00;;;;;;;9.75;100.00;96934.88;4957074;28;20054;-76
2023/06/09 02:40:42;;;;;;;9.80;6.85;;;;;;;9.71;100.00;96932.94;4951111;28;20584;-77
2023/06/09 02:43:09;;;;;;;10.70;6.40;;;;;;;9.53;100.00;96934.13;4962322;28;20075;-77
2023/06/09 02:45:36;;;;;;;9.85;7.35;;;;;;;9.50;100.00;96933.59;4958090;28;20039;-77
2023/06/09 02:48:03;;;;;;;9.23;7.18;;;;;;;9.48;100.00;96927.59;4950744;28;20055;-77
2023/06/09 02:50:30;;;;;;;9.57;6.57;;;;;;;9.53;100.00;96932.25;4961850;28;20050;-76
2023/06/09 02:53:00;;;;;;;10.20;7.00;;;;;;;9.56;100.00;96934.44;4954840;28;20525;-76
2023/06/09 02:55:28;;;;;;;10.73;7.88;;;;;;;9.50;100.00;96933.59;4960009;28;20070;-73
2023/06/09 02:57:54;;;;;;;15.00;7.75;;;;;;;9.47;100.00;96936.00;4954142;28;20553;-74
2023/06/09 03:00:26;;;;;;;9.10;6.35;;;;;;;9.48;100.00;96938.41;4963238;28;20192;-73
2023/06/09 03:02:56;;;;;;;10.38;7.30;;;;;;;9.49;100.00;96945.47;4963147;28;20050;-75
2023/06/09 03:05:26;;;;;;;11.13;6.72;;;;;;;9.22;100.00;96937.34;4954381;28;20035;-73
2023/06/09 03:07:54;;;;;;;10.07;7.00;;;;;;;9.22;100.00;96951.66;4957818;28;20157;-74
2023/06/09 03:10:21;;;;;;;10.63;7.07;;;;;;;9.24;100.00;96959.50;4955989;28;20569;-73
2023/06/09 03:12:49;;;;;;;11.38;8.35;;;;;;;9.38;100.00;96954.53;4965269;28;20035;-74
2023/06/09 03:15:16;;;;;;;11.27;7.28;;;;;;;9.41;100.00;96947.81;4960457;28;20047;-75
2023/06/09 03:17:44;;;;;;;9.98;7.43;;;;;;;9.46;100.00;96948.69;4963379;28;20486;-75
2023/06/09 03:20:12;;;;;;;10.80;7.80;;;;;;;9.62;100.00;96948.84;4962762;28;20047;-75
2023/06/09 03:22:40;;;;;;;11.32;7.28;;;;;;;9.37;100.00;96952.91;4968518;28;20059;-76
2023/06/09 03:25:08;;;;;;;9.27;7.03;;;;;;;9.41;100.00;96948.63;4977605;28;20051;-75
2023/06/09 03:27:35;;;;;;;11.60;7.35;;;;;;;9.46;100.00;96950.56;4962328;28;20063;-75
2023/06/09 03:30:02;;;;;;;10.02;6.18;;;;;;;9.41;100.00;96958.63;4959084;28;20588;-76
2023/06/09 03:32:29;;;;;;;9.35;6.53;;;;;;;9.57;100.00;96954.16;4954789;28;20062;-75
2023/06/09 03:34:56;;;;;;;10.55;6.68;;;;;;;9.68;100.00;96946.97;4951074;28;20540;-75
2023/06/09 03:37:23;;;;;;;9.23;6.70;;;;;;;9.54;100.00;96952.00;4955315;28;20043;-75
2023/06/09 03:39:49;;;;;;;10.38;7.18;;;;;;;9.61;100.00;96948.00;4968994;28;20046;-75
2023/06/09 03:42:20;;;;;;;8.75;6.53;;;;;;;9.49;100.00;96953.56;4967009;28;20366;-74
2023/06/09 03:44:46;;;;;;;9.90;6.22;;;;;;;9.76;100.00;96950.03;4966185;28;20035;-75
2023/06/09 03:47:14;;;;;;;10.15;6.10;;;;;;;9.87;100.00;96942.81;4961150;28;20139;-74
2023/06/09 03:49:41;;;;;;;10.93;6.50;;;;;;;9.76;100.00;96941.91;4976559;28;20115;-76
2023/06/09 03:52:07;;;;;;;11.13;6.95;;;;;;;9.75;100.00;96943.00;4970552;28;20439;-75
2023/06/09 03:54:36;;;;;;;12.43;7.30;;;;;;;9.71;100.00;96936.47;4954036;28;20580;-74
2023/06/09 03:57:03;;;;;;;10.65;6.88;;;;;;;9.80;100.00;96944.13;4964406;28;20054;-74
2023/06/09 03:59:30;;;;;;;8.82;5.88;;;;;;;9.80;100.00;96938.72;4965069;28;20035;-74
2023/06/09 04:01:56;;;;;;;9.23;6.60;;;;;;;9.79;100.00;96937.06;4960093;28;20074;-75
2023/06/09 04:04:24;;;;;;;10.43;6.53;;;;;;;9.76;100.00;96938.38;4961046;28;20138;-75
2023/06/09 04:06:52;;;;;;;11.25;7.50;;;;;;;9.74;100.00;96937.84;4960179;28;20078;-75
2023/06/09 04:09:20;;;;;;;9.55;7.13;;;;;;;9.82;100.00;96939.25;4957225;28;20514;-76
2023/06/09 04:11:47;;;;;;;11.93;7.85;;;;;;;9.80;100.00;96938.72;4961412;28;20051;-75
2023/06/09 04:14:14;;;;;;;12.45;8.30;;;;;;;9.85;100.00;96941.44;4956768;28;20078;-75
2023/06/09 04:16:41;;;;;;;11.32;7.93;;;;;;;9.89;100.00;96948.78;4978348;28;20727;-75
2023/06/09 04:19:08;;;;;;;12.80;8.00;;;;;;;9.95;100.00;96951.53;4963762;28;20043;-75
2023/06/09 04:21:36;;;;;;;11.77;7.68;;;;;;;9.99;100.00;96945.34;4956235;28;20046;-75
2023/06/09 04:24:03;;;;;;;12.38;7.47;;;;;;;10.06;100.00;96947.81;4956373;28;20051;-74
2023/06/09 04:26:32;;;;;;;12.65;7.90;;;;;;;10.08;100.00;96952.97;4958299;28;20062;-75
2023/06/09 04:28:59;;;;;;;15.02;8.27;;;;;;;10.13;100.00;96948.41;4963948;28;20485;-75
2023/06/09 04:31:33;;;;;;;12.45;7.85;;;;;;;10.17;100.00;96951.41;4950431;28;20077;-75
2023/06/09 04:34:12;;;;;;;11.23;7.38;;;;;;;10.22;100.00;96958.75;4977131;28;20620;-75
2023/06/09 04:36:44;;;;;;;11.98;9.25;;;;;;;10.30;100.00;96946.63;4962661;28;20034;-74
2023/06/09 04:39:12;;;;;;;12.48;8.82;;;;;;;10.32;100.00;96955.31;4961184;28;20047;-74
2023/06/09 04:41:40;;;;;;;14.77;9.70;;;;;;;10.44;100.00;96952.41;4958996;28;20133;-76
2023/06/09 04:44:08;;;;;;;11.77;8.70;;;;;;;10.57;100.00;96949.25;4950545;28;20048;-75
2023/06/09 04:46:38;;;;;;;14.85;8.77;;;;;;;10.68;100.00;96947.44;4962035;28;20031;-76
2023/06/09 04:49:09;;;;;;;13.80;8.70;;;;;;;10.82;100.00;96949.66;4950108;28;20139;-76
2023/06/09 04:51:46;;;;;;;10.73;8.20;;;;;;;10.95;100.00;96951.91;4951165;28;20038;-75
2023/06/09 04:54:25;;;;;;;11.27;8.20;;;;;;;11.10;100.00;96951.16;4969243;28;20573;-76
2023/06/09 04:56:52;;;;;;;11.20;8.57;;;;;;;11.22;100.00;96944.66;4957070;28;20506;-75
2023/06/09 04:59:22;;;;;;;13.48;8.30;;;;;;;11.37;100.00;96943.88;4955425;28;20094;-75
2023/06/09 05:01:52;;;;;;;13.98;8.20;;;;;;;11.42;100.00;96941.19;4965318;28;20039;-75
2023/06/09 05:04:19;;;;;;;10.15;7.72;;;;;;;11.53;100.00;96947.44;4968644;28;20046;-76
2023/06/09 05:06:47;;;;;;;12.93;8.38;;;;;;;11.62;100.00;96951.25;4970732;28;20140;-75
2023/06/09 05:09:13;;;;;;;11.40;8.95;;;;;;;11.73;100.00;96953.97;4947781;28;20419;-76
2023/06/09 05:11:41;;;;;;;11.52;8.65;;;;;;;11.84;100.00;96950.19;4960843;28;20510;-76
2023/06/09 05:14:08;;;;;;;12.05;9.70;;;;;;;12.00;100.00;96952.88;4963743;28;20550;-76
2023/06/09 05:16:36;;;;;;;11.02;8.57;;;;;;;12.16;100.00;96956.47;4954919;28;20102;-76
2023/06/09 05:19:06;;;;;;;11.85;7.75;;;;;;;12.26;100.00;96951.00;4965208;28;20105;-75
2023/06/09 05:21:33;;;;;;;14.00;9.20;;;;;;;12.42;100.00;96948.28;4957629;28;20043;-76
2023/06/09 05:24:00;;;;;;;11.70;8.07;;;;;;;12.55;100.00;96965.91;4962576;28;20101;-76
2023/06/09 05:26:28;;;;;;;11.80;8.27;;;;;;;12.72;100.00;96958.25;4954267;28;20039;-76
2023/06/09 05:28:55;;;;;;;9.32;6.53;;;;;;;12.87;100.00;96964.75;4958542;28;20533;-76
2023/06/09 05:31:23;;;;;;;11.52;8.82;;;;;;;13.05;100.00;96966.00;4964929;28;20625;-76
2023/06/09 05:33:50;;;;;;;10.15;8.13;;;;;;;13.17;100.00;96973.03;4961408;28;20056;-76
2023/06/09 05:36:17;;;;;;;12.55;8.32;;;;;;;13.30;100.00;96961.56;4959289;28;20122;-76
2023/06/09 05:38:48;;;;;;;10.68;7.88;;;;;;;13.43;100.00;96970.19;4945454;28;20175;-76
2023/06/09 05:41:15;;;;;;;11.25;8.32;;;;;;;13.58;100.00;96974.75;4950381;28;20054;-75
2023/06/09 05:43:41;;;;;;;10.45;7.85;;;;;;;13.68;100.00;96973.88;4957237;28;20039;-75
2023/06/09 05:46:09;;;;;;;9.35;7.15;;;;;;;13.79;100.00;96970.00;4957734;28;20045;-76
2023/06/09 05:48:36;;;;;;;10.27;7.80;;;;;;;13.93;100.00;96966.66;4961399;28;20053;-76
2023/06/09 05:51:02;;;;;;;14.82;7.43;;;;;;;14.13;100.00;96974.66;4960630;28;20042;-76
2023/06/09 05:53:29;;;;;;;11.13;7.63;;;;;;;14.35;100.00;96973.38;4960999;28;20043;-76
2023/06/09 05:55:58;;;;;;;8.25;6.25;;;;;;;14.49;100.00;96981.66;4955687;28;20057;-76
2023/06/09 05:58:27;;;;;;;8.70;6.55;;;;;;;14.60;100.00;96974.22;4946302;28;20638;-76
2023/06/09 06:00:57;;;;;;;8.32;6.40;;;;;;;14.73;100.00;96972.72;4948087;28;20130;-76
2023/06/09 06:03:24;;;;;;;8.75;6.50;;;;;;;14.87;100.00;96969.34;4954144;28;20039;-76
2023/06/09 06:05:51;;;;;;;8.85;7.15;;;;;;;14.99;99.70;96974.38;4962409;28;20047;-76
2023/06/09 06:08:18;;;;;;;8.95;6.60;;;;;;;15.05;99.22;96971.31;4953319;28;20069;-76
2023/06/09 06:10:45;;;;;;;8.98;6.78;;;;;;;15.14;99.05;96973.41;4955272;28;20461;-76
2023/06/09 06:13:12;;;;;;;8.23;6.05;;;;;;;15.23;98.74;96968.09;4952831;28;20043;-76
2023/06/09 06:15:39;;;;;;;7.93;6.10;;;;;;;15.33;98.16;96979.69;4955562;28;20047;-76
2023/06/09 06:18:05;;;;;;;10.30;6.63;;;;;;;15.46;97.88;96974.63;4961541;28;20062;-76
2023/06/09 06:20:32;;;;;;;8.10;5.93;;;;;;;15.55;97.12;96977.50;4963526;28;20038;-76
2023/06/09 06:22:59;;;;;;;9.23;6.63;;;;;;;15.65;97.63;96979.25;4961015;28;20057;-75
2023/06/09 06:25:28;;;;;;;8.07;6.43;;;;;;;15.71;94.87;96978.88;4961096;28;20593;-76
2023/06/09 06:27:55;;;;;;;8.45;6.00;;;;;;;15.81;94.73;96977.13;4960831;28;20051;-76
2023/06/09 06:30:21;;;;;;;10.20;6.47;;;;;;;16.03;95.18;96981.19;4953190;28;20067;-76
2023/06/09 06:32:52;;;;;;;8.50;6.32;;;;;;;16.31;91.16;96989.47;4957644;28;20049;-76
2023/06/09 06:35:26;;;;;;;8.55;6.15;;;;;;;16.43;91.41;96987.09;4961309;28;20043;-76
2023/06/09 06:37:54;;;;;;;8.90;6.90;;;;;;;16.56;92.81;96984.69;4949864;28;20046;-76
2023/06/09 06:40:21;;;;;;;8.88;6.45;;;;;;;16.63;91.76;96983.16;4956470;28;20502;-76
2023/06/09 06:42:48;;;;;;;8.68;6.13;;;;;;;16.67;nan;96985.31;4956834;28;20039;-76
2023/06/09 06:45:22;;;;;;;8.02;6.15;;;;;;;16.70;92.46;96981.97;4959463;28;20044;-76
2023/06/09 06:47:49;;;;;;;7.07;6.15;;;;;;;16.80;92.23;96972.78;4963191;28;20039;-76
2023/06/09 06:50:16;;;;;;;8.77;6.63;;;;;;;16.97;92.32;96977.63;4950312;28;20051;-76
2023/06/09 06:52:43;;;;;;;8.32;6.22;;;;;;;17.07;91.63;96972.00;4961749;28;20090;-76
2023/06/09 06:55:09;;;;;;;8.27;5.95;;;;;;;17.21;89.89;96974.72;4955930;28;20126;-76
2023/06/09 06:57:37;;;;;;;9.23;6.28;;;;;;;17.36;89.34;96978.25;4956184;28;20044;-76
2023/06/09 07:00:16;;;;;;;9.13;6.15;;;;;;;17.33;88.16;96984.34;4951592;28;20164;-76
2023/06/09 07:02:47;;;;;;;8.73;6.68;;;;;;;17.41;89.36;96981.72;4957597;28;20043;-76
2023/06/09 07:05:15;;;;;;;8.38;6.80;;;;;;;17.41;88.44;96983.63;4964356;28;20104;-76
2023/06/09 07:07:43;;;;;;;9.13;6.28;;;;;;;17.55;88.84;96983.59;4949767;28;20066;-76
2023/06/09 07:10:10;;;;;;;9.15;6.75;;;;;;;17.61;87.62;96985.09;4960100;28;20035;-75
2023/06/09 07:12:37;;;;;;;8.55;5.97;;;;;;;17.78;87.51;96991.84;4958400;28;20043;-76
2023/06/09 07:15:04;;;;;;;9.32;5.85;;;;;;;17.91;86.97;96996.47;4954338;28;20058;-76
2023/06/09 07:17:31;;;;;;;11.60;7.05;;;;;;;18.09;86.45;96999.38;4948824;28;20463;-76
2023/06/09 07:19:58;;;;;;;10.35;6.28;;;;;;;18.10;84.60;96997.47;4949872;28;20051;-76
2023/06/09 07:22:24;;;;;;;7.30;5.90;;;;;;;18.15;86.06;97011.03;4956914;28;20047;-76
2023/06/09 07:24:51;;;;;;;7.82;6.07;;;;;;;18.31;85.63;97009.53;4963541;28;20079;-76
2023/06/09 07:27:17;;;;;;;9.32;6.72;;;;;;;18.33;84.35;97004.53;4956203;28;20036;-76
2023/06/09 07:29:44;;;;;;;8.38;7.07;;;;;;;18.47;84.25;97009.16;4957584;28;20050;-75
2023/06/09 07:32:11;;;;;;;9.73;6.70;;;;;;;18.45;83.12;97005.91;4956619;28;20055;-76
2023/06/09 07:34:37;;;;;;;8.65;6.70;;;;;;;18.49;83.22;97006.91;4957274;28;20182;-76
2023/06/09 07:37:05;;;;;;;8.82;5.72;;;;;;;18.76;81.17;97007.06;4956059;28;20071;-76
2023/06/09 07:39:34;;;;;;;7.68;5.32;;;;;;;18.84;79.21;97004.34;4952572;28;20054;-76
2023/06/09 07:42:01;;;;;;;7.32;5.05;;;;;;;18.95;77.79;97001.34;4960453;28;20074;-76
2023/06/09 07:44:28;;;;;;;6.03;4.63;;;;;;;19.10;75.15;97005.63;4956495;28;20113;-76
2023/06/09 07:46:55;;;;;;;6.50;4.70;;;;;;;19.15;74.46;97004.66;4960615;28;20126;-76
2023/06/09 07:49:21;;;;;;;7.32;4.72;;;;;;;19.29;75.70;97001.81;4964345;28;20047;-76
2023/06/09 07:51:49;;;;;;;9.65;5.05;;;;;;;19.44;74.12;97001.38;4961225;28;20051;-77
2023/06/09 07:54:16;;;;;;;12.68;5.47;;;;;;;19.62;72.83;96998.66;4955181;28;20098;-76
2023/06/09 07:56:48;;;;;;;7.43;4.90;;;;;;;19.66;71.65;97002.38;4959368;28;20147;-77
2023/06/09 07:59:18;;;;;;;6.13;4.72;;;;;;;19.80;72.24;97001.44;4964847;28;20044;-76
2023/06/09 08:01:46;;;;;;;5.70;3.95;;;;;;;19.92;68.02;97003.53;4958129;28;20043;-76
2023/06/09 08:04:13;;;;;;;7.32;4.38;;;;;;;20.05;68.04;96997.09;4963214;28;20074;-76
2023/06/09 08:06:40;;;;;;;5.93;4.28;;;;;;;20.05;66.94;96996.31;4958562;28;20045;-77
2023/06/09 08:09:07;;;;;;;5.88;4.47;;;;;;;20.13;67.68;96996.28;4964954;28;20100;-76
2023/06/09 08:11:33;;;;;;;6.93;4.10;;;;;;;20.24;65.27;96996.75;4958943;28;20043;-76
2023/06/09 08:14:00;;;;;;;7.28;4.35;;;;;;;20.26;64.51;96993.69;4967101;28;20530;-76
2023/06/09 08:16:26;;;;;;;7.93;5.10;;;;;;;20.23;63.09;96989.66;4957111;28;20031;-76
2023/06/09 08:18:53;;;;;;;7.40;4.28;;;;;;;20.24;65.23;96996.75;4951538;28;20046;-77
2023/06/09 08:21:20;;;;;;;8.13;4.30;;;;;;;20.37;65.16;96994.16;4960760;28;20125;-76
2023/06/09 08:23:46;;;;;;;6.15;3.83;;;;;;;20.41;62.91;96992.38;4963317;28;20042;-76
2023/06/09 08:26:13;;;;;;;6.25;3.97;;;;;;;20.43;62.51;96986.53;4965617;28;20047;-77
2023/06/09 08:28:40;;;;;;;7.70;4.90;;;;;;;20.44;63.70;96990.91;4961039;28;20039;-76
2023/06/09 08:31:08;;;;;;;7.28;4.18;;;;;;;20.57;62.19;96991.84;4951561;28;20047;-76
2023/06/09 08:33:36;;;;;;;6.78;4.13;;;;;;;20.58;62.06;96982.47;4959117;28;20046;-77
2023/06/09 08:36:04;;;;;;;7.53;4.13;;;;;;;20.55;62.29;96983.94;4958856;28;20051;-76
2023/06/09 08:38:32;;;;;;;6.20;3.90;;;;;;;20.55;61.76;96986.69;4959500;28;20047;-77
2023/06/09 08:41:09;;;;;;;5.97;3.67;;;;;;;20.56;62.05;96985.53;4965397;28;20085;-76
2023/06/09 08:43:36;;;;;;;6.72;4.28;;;;;;;20.61;62.71;96973.56;4963943;28;20038;-77
2023/06/09 08:46:05;;;;;;;5.53;3.60;;;;;;;20.66;62.18;96982.47;4964144;28;20072;-77
2023/06/09 08:48:35;;;;;;;6.65;4.43;;;;;;;20.71;61.23;96978.72;4965416;28;20049;-77
2023/06/09 08:51:02;;;;;;;6.15;4.13;;;;;;;20.83;61.27;96980.78;4962689;28;20085;-76
2023/06/09 08:53:30;;;;;;;8.60;3.58;;;;;;;20.83;61.19;96975.28;4957920;28;20047;-76
2023/06/09 08:55:59;;;;;;;6.70;4.43;;;;;;;20.97;61.08;96979.78;4951655;28;20051;-76
2023/06/09 08:58:26;;;;;;;7.40;3.85;;;;;;;21.10;60.14;96975.19;4957128;28;20044;-77
2023/06/09 09:00:53;;;;;;;5.57;3.72;;;;;;;21.08;59.92;96982.97;4963323;28;20046;-77
2023/06/09 09:03:20;;;;;;;5.13;3.42;;;;;;;21.11;60.41;96971.31;4955154;28;20039;-76
2023/06/09 09:05:47;;;;;;;6.05;3.30;;;;;;;21.22;59.24;96974.50;4959516;28;20039;-77
2023/06/09 09:08:14;;;;;;;5.50;3.67;;;;;;;21.21;59.28;96976.44;4949435;28;20043;-77
2023/06/09 09:10:41;;;;;;;5.38;3.40;;;;;;;21.28;59.26;96973.97;4952623;28;20122;-77
2023/06/09 09:13:10;;;;;;;6.32;3.45;;;;;;;21.40;59.81;96975.19;4957335;28;20129;-77
2023/06/09 09:15:45;;;;;;;5.80;4.07;;;;;;;21.44;59.42;96981.63;4957479;28;20163;-77
2023/06/09 09:18:12;;;;;;;6.38;3.90;;;;;;;21.50;58.38;96976.75;4959166;28;20685;-77
2023/06/09 09:20:39;;;;;;;5.68;4.03;;;;;;;21.54;57.96;96977.69;4962045;28;20043;-77
2023/06/09 09:23:08;;;;;;;6.70;4.60;;;;;;;21.50;59.50;96985.84;4963088;28;20113;-77
2023/06/09 09:25:36;;;;;;;5.60;3.80;;;;;;;21.60;59.75;96983.81;4958441;28;20137;-77
2023/06/09 09:28:10;;;;;;;5.43;3.45;;;;;;;21.62;59.04;96981.53;4964109;28;20042;-77
2023/06/09 09:30:44;;;;;;;5.28;3.83;;;;;;;21.68;58.51;96969.19;4964390;28;20053;-76
2023/06/09 09:33:13;;;;;;;5.55;4.00;;;;;;;21.80;57.83;96976.72;4959627;28;20620;-77
2023/06/09 09:35:43;;;;;;;6.55;3.97;;;;;;;21.78;59.17;96979.81;4953954;28;20413;-77
2023/06/09 09:38:12;;;;;;;6.05;3.83;;;;;;;21.87;58.25;96967.94;4966798;28;20051;-77
2023/06/09 09:40:44;;;;;;;4.55;3.20;;;;;;;21.98;57.96;96971.09;4967185;28;20039;-76
2023/06/09 09:43:11;;;;;;;5.85;3.75;;;;;;;22.05;57.75;96960.31;4956377;28;20547;-77
2023/06/09 09:45:50;;;;;;;5.80;3.60;;;;;;;22.03;55.79;96960.66;4960730;28;20054;-77
2023/06/09 09:48:21;;;;;;;5.40;3.30;;;;;;;22.09;55.27;96950.22;4956143;28;20122;-77
2023/06/09 09:50:50;;;;;;;7.27;2.80;;;;;;;22.13;54.35;96956.69;4947613;28;20062;-77
2023/06/09 09:53:20;;;;;;;6.05;3.90;;;;;;;22.24;55.38;96951.56;4957347;28;20055;-77
2023/06/09 09:55:47;;;;;;;4.72;3.22;;;;;;;22.25;54.58;96950.41;4956496;28;20085;-77
2023/06/09 09:58:17;;;;;;;5.03;3.08;;;;;;;22.34;55.09;96947.56;4956783;28;20049;-77
2023/06/09 10:00:46;;;;;;;5.00;3.30;;;;;;;22.43;54.23;96947.47;4947048;28;20214;-77
2023/06/09 10:03:14;;;;;;;6.20;3.45;;;;;;;22.47;54.09;96948.38;4958093;28;20126;-77
2023/06/09 10:05:46;;;;;;;5.65;3.15;;;;;;;22.52;52.34;96939.91;4955784;28;20047;-77
2023/06/09 10:08:26;;;;;;;5.38;3.25;;;;;;;22.65;52.47;96945.47;4962197;28;20047;-77
2023/06/09 10:10:56;;;;;;;5.57;3.13;;;;;;;22.80;52.49;96946.75;4944049;28;20126;-77
2023/06/09 10:13:26;;;;;;;4.97;2.88;;;;;;;22.86;52.08;96946.19;4950684;28;20042;-77
2023/06/09 10:15:57;;;;;;;4.93;3.40;;;;;;;22.91;53.17;96939.63;4960393;28;20072;-77
2023/06/09 10:18:24;;;;;;;4.43;2.90;;;;;;;23.11;51.21;96950.94;4961118;28;20057;-77
2023/06/09 10:20:53;;;;;;;5.25;3.13;;;;;;;23.30;52.63;96944.00;4964086;28;20042;-77
2023/06/09 10:23:20;;;;;;;4.93;3.20;;;;;;;23.44;52.51;96943.69;4961625;28;20054;-77
2023/06/09 10:25:51;;;;;;;5.43;3.60;;;;;;;23.36;51.21;96945.38;4948658;28;20736;-77
2023/06/09 10:28:19;;;;;;;4.70;3.00;;;;;;;23.21;51.09;96931.13;4958333;28;20046;-77
2023/06/09 10:30:48;;;;;;;7.45;3.05;;;;;;;23.36;50.50;96928.81;4954589;28;20048;-77
2023/06/09 10:33:18;;;;;;;4.75;2.85;;;;;;;23.35;49.57;96933.56;4947682;28;20614;-77
2023/06/09 10:35:48;;;;;;;4.70;2.80;;;;;;;23.62;48.68;96938.69;4955598;28;20107;-77
2023/06/09 10:38:35;;;;;;;5.18;2.67;;;;;;;23.90;47.11;96944.25;4965107;28;20031;-77
2023/06/09 10:41:12;;;;;;;5.40;2.83;;;;;;;23.72;47.62;96938.19;4960548;28;20053;-77
2023/06/09 10:43:44;;;;;;;4.47;2.75;;;;;;;23.72;47.09;96929.91;4958414;28;20150;-77
2023/06/09 10:46:12;;;;;;;4.90;2.67;;;;;;;23.67;46.58;96935.69;4951978;28;20462;-77
2023/06/09 10:48:50;;;;;;;4.68;2.58;;;;;;;23.86;46.63;96928.72;4963232;28;20436;-77
2023/06/09 10:51:28;;;;;;;4.30;2.72;;;;;;;23.58;46.64;96926.72;4959739;28;20097;-77
2023/06/09 10:54:07;;;;;;;3.97;2.35;;;;;;;23.52;45.34;96929.72;4951922;28;20075;-77
2023/06/09 10:56:35;;;;;;;4.47;2.70;;;;;;;23.58;46.07;96929.50;4955479;28;20035;-77
2023/06/09 10:59:03;;;;;;;4.55;3.08;;;;;;;23.67;46.70;96924.63;4965243;28;20106;-77
2023/06/09 11:01:29;;;;;;;5.57;2.83;;;;;;;23.79;47.71;96923.78;4964198;28;20043;-77
2023/06/09 11:03:56;;;;;;;4.85;2.80;;;;;;;23.99;46.99;96919.22;4963797;28;20078;-77
2023/06/09 11:06:23;;;;;;;3.75;2.70;;;;;;;24.00;45.15;96918.03;4956066;28;20047;-77
2023/06/09 11:09:14;;;;;;;4.70;2.85;;;;;;;23.87;44.86;96916.50;4962810;28;20117;-77
2023/06/09 11:11:49;;;;;;;4.28;2.78;;;;;;;23.95;45.51;96918.31;4951999;28;20038;-77
2023/06/09 11:14:43;;;;;;;6.63;3.10;;;;;;;24.11;45.29;96912.88;4951767;28;20514;-77
2023/06/09 11:17:29;;;;;;;5.03;3.10;;;;;;;24.39;45.03;96922.25;4955464;28;20510;-77
2023/06/09 11:20:11;;;;;;;5.18;3.10;;;;;;;24.70;44.62;96922.66;4957208;28;20078;-77
2023/06/09 11:22:42;;;;;;;5.10;2.85;;;;;;;24.76;45.53;96918.47;4956931;28;20090;-77
2023/06/09 11:25:15;;;;;;;4.53;2.95;;;;;;;24.84;45.02;96906.41;4958800;28;20043;-77
2023/06/09 11:27:42;;;;;;;5.10;3.05;;;;;;;24.74;44.88;96899.44;4958696;28;20627;-77
2023/06/09 11:30:18;;;;;;;4.97;3.08;;;;;;;24.83;44.45;96904.00;4960316;28;20069;-77
2023/06/09 11:33:15;;;;;;;4.75;3.10;;;;;;;24.89;45.82;96900.63;4957428;28;20042;-77
2023/06/09 11:35:44;;;;;;;5.80;2.90;;;;;;;25.20;44.45;96906.47;4950981;28;20051;-77
2023/06/09 11:38:19;;;;;;;6.68;2.90;;;;;;;25.31;42.95;96895.63;4959799;28;20039;-77